Time;durP1;ratioP1;P1;durP2;ratioP2;P2;SDS_P1;SDS_P2;PMS_P1;PMS_P2;Temp;Humidity;BMP_temperature;BMP_pressure;BME280_temperature;BME280_humidity;BME280_pressure;Samples;Min_cycle;Max_cycle;Signal;HPM_P1;HPM_P2
2021/12/13 00:01:38;;;;;;;13.90;7.30;;;;;;;4.76;99.91;101232.98;1793428;79;21057;-66
2021/12/13 00:04:32;;;;;;;11.38;5.95;;;;;;;4.82;99.56;101242.84;1787496;79;21015;-66
2021/12/13 00:07:04;;;;;;;11.55;5.92;;;;;;;4.93;98.03;101240.23;1692547;83;20995;-66
2021/12/13 00:09:36;;;;;;;13.43;6.30;;;;;;;5.05;98.00;101215.17;1762129;80;21132;-65
2021/12/13 00:12:04;;;;;;;11.60;6.70;;;;;;;4.98;97.08;101198.52;1783443;80;21130;-65
2021/12/13 00:14:36;;;;;;;14.55;6.47;;;;;;;4.93;97.22;101203.24;1784214;79;21550;-65
2021/12/13 00:17:10;;;;;;;14.98;6.65;;;;;;;4.80;97.86;101196.92;1783892;80;21410;-65
2021/12/13 00:19:41;;;;;;;14.50;6.45;;;;;;;4.84;98.91;101197.03;1784377;80;21017;-65
2021/12/13 00:22:14;;;;;;;13.90;6.22;;;;;;;4.81;99.07;101199.84;1784190;79;20959;-66
2021/12/13 00:24:43;;;;;;;14.37;6.43;;;;;;;4.89;97.46;101201.38;1800570;79;21544;-66
2021/12/13 00:27:24;;;;;;;16.82;6.25;;;;;;;4.95;97.22;101209.91;1784324;78;21049;-66
2021/12/13 00:30:24;;;;;;;11.15;6.03;;;;;;;4.99;95.29;101213.88;1782127;80;21019;-65
2021/12/13 00:33:17;;;;;;;11.68;6.35;;;;;;;5.07;93.31;101202.45;1784302;79;21477;-65
2021/12/13 00:36:02;;;;;;;12.88;7.08;;;;;;;5.01;93.11;101208.13;1783989;79;20998;-66
2021/12/13 00:38:29;;;;;;;18.65;8.50;;;;;;;5.12;91.51;101209.86;1783831;80;21230;-67
2021/12/13 00:41:09;;;;;;;12.07;6.58;;;;;;;5.04;92.25;101209.19;1784378;80;21061;-66
2021/12/13 00:43:48;;;;;;;11.60;6.00;;;;;;;4.97;91.72;101202.87;1783942;80;21019;-65
2021/12/13 00:46:15;;;;;;;9.68;5.78;;;;;;;4.93;91.14;101214.88;1782233;79;20995;-64
2021/12/13 00:48:47;;;;;;;10.50;6.05;;;;;;;4.62;94.83;101225.87;1780185;80;21595;-66
2021/12/13 00:51:23;;;;;;;11.45;6.12;;;;;;;4.74;94.73;101235.70;1783606;80;21912;-67
2021/12/13 00:53:50;;;;;;;11.75;6.58;;;;;;;4.70;95.46;101226.55;1783714;80;20920;-67
2021/12/13 00:56:45;;;;;;;13.22;6.65;;;;;;;4.91;93.79;101203.83;1784286;80;20979;-65
2021/12/13 00:59:31;;;;;;;11.20;5.72;;;;;;;5.25;88.71;101210.97;1784263;80;21049;-65
2021/12/13 01:02:12;;;;;;;10.75;5.95;;;;;;;4.76;92.67;101211.03;1784408;80;20970;-65
2021/12/13 01:05:19;;;;;;;10.90;6.37;;;;;;;4.68;94.28;101203.08;1776381;80;21125;-66
2021/12/13 01:08:16;;;;;;;11.95;6.15;;;;;;;4.71;94.46;101188.63;1774152;80;21013;-65
2021/12/13 01:11:04;;;;;;;10.85;5.85;;;;;;;4.77;92.92;101193.29;1773776;80;21105;-65
2021/12/13 01:13:43;;;;;;;11.50;5.70;;;;;;;4.55;93.90;101200.65;1769488;80;20999;-65
2021/12/13 01:16:34;;;;;;;15.32;6.62;;;;;;;4.73;92.90;101187.55;1768662;80;21607;-65
2021/12/13 01:19:01;;;;;;;12.07;6.25;;;;;;;4.73;91.59;101182.86;1734710;81;21203;-68
2021/12/13 01:21:42;;;;;;;12.85;5.95;;;;;;;4.47;95.30;101184.47;1772485;80;20971;-66
2021/12/13 01:24:30;;;;;;;12.98;6.35;;;;;;;4.55;94.76;101179.52;1769255;80;21737;-66
2021/12/13 01:26:49;;;;;;;15.20;6.28;;;;;;;4.61;93.92;101199.67;1771278;79;21002;-65
2021/12/13 01:29:25;;;;;;;10.15;6.30;;;;;;;4.61;93.90;101200.14;1772206;79;21090;-66
2021/12/13 01:32:03;;;;;;;14.58;6.87;;;;;;;4.68;92.87;101188.87;1769820;80;21119;-66
2021/12/13 01:34:32;;;;;;;13.18;7.12;;;;;;;4.81;91.67;101183.91;1773215;80;20959;-65
2021/12/13 01:37:08;;;;;;;16.45;6.62;;;;;;;4.72;91.08;101191.08;1771856;79;21843;-66
2021/12/13 01:39:31;;;;;;;10.15;5.62;;;;;;;4.70;89.87;101192.13;1772511;80;21077;-65
2021/12/13 01:42:18;;;;;;;13.13;5.75;;;;;;;4.60;90.65;101201.09;1770349;79;21047;-65
2021/12/13 01:44:49;;;;;;;13.83;6.78;;;;;;;4.59;91.06;101188.66;1744474;80;22340;-65
2021/12/13 01:47:20;;;;;;;11.85;5.78;;;;;;;4.62;91.72;101196.17;1753099;81;25452;-64
2021/12/13 01:50:07;;;;;;;9.18;6.05;;;;;;;4.59;90.20;101189.95;1773666;80;21106;-65
2021/12/13 01:52:37;;;;;;;15.05;6.70;;;;;;;4.44;91.67;101198.91;1773218;80;21482;-65
2021/12/13 01:55:15;;;;;;;13.85;6.10;;;;;;;4.61;90.26;101197.09;1770451;80;21046;-64
2021/12/13 01:57:49;;;;;;;11.25;5.75;;;;;;;4.50;90.62;101188.55;1772953;80;21125;-65
2021/12/13 02:00:32;;;;;;;10.45;5.80;;;;;;;4.59;90.17;101186.55;1773376;80;21447;-63
2021/12/13 02:02:53;;;;;;;11.97;6.70;;;;;;;4.54;89.46;101175.75;1771794;80;20856;-65
2021/12/13 02:05:30;;;;;;;9.63;5.80;;;;;;;4.49;90.12;101181.28;1757332;79;21453;-66
2021/12/13 02:08:09;;;;;;;12.37;6.92;;;;;;;4.35;91.90;101178.95;1755062;80;21586;-64
2021/12/13 02:10:41;;;;;;;11.97;5.70;;;;;;;4.51;91.16;101172.95;1755636;80;21791;-65
2021/12/13 02:13:20;;;;;;;;;;;;;;;4.74;89.28;101173.71;1754875;81;20975;-66
2021/12/13 02:18:43;;;;;;;13.45;5.65;;;;;;;4.70;87.03;101173.61;1754271;81;21092;-67
2021/12/13 02:21:24;;;;;;;10.50;5.78;;;;;;;4.52;87.14;101175.06;1725617;82;21152;-64
2021/12/13 02:23:49;;;;;;;8.83;4.97;;;;;;;4.49;88.75;101167.08;1729030;82;21202;-65
2021/12/13 02:26:16;;;;;;;13.35;6.10;;;;;;;4.91;85.57;101163.30;1729332;82;20978;-64
2021/12/13 02:28:45;;;;;;;11.83;5.62;;;;;;;4.68;84.28;101152.23;1729393;82;21015;-67
2021/12/13 02:31:19;;;;;;;15.98;6.90;;;;;;;4.78;84.38;101163.48;1729721;82;21034;-64
2021/12/13 02:33:56;;;;;;;11.75;5.15;;;;;;;4.77;83.72;101151.52;1729744;82;21563;-66
2021/12/13 02:36:40;;;;;;;14.38;6.42;;;;;;;4.82;83.36;101145.98;1728621;82;21143;-65
2021/12/13 02:39:15;;;;;;;10.82;6.40;;;;;;;4.99;80.22;101151.05;1729915;82;21031;-64
2021/12/13 02:41:44;;;;;;;8.43;4.85;;;;;;;5.01;79.16;101150.00;1729052;82;21029;-66
2021/12/13 02:44:29;;;;;;;9.93;5.25;;;;;;;5.10;76.74;101140.19;1729914;82;21042;-66
2021/12/13 02:46:59;;;;;;;10.75;5.95;;;;;;;5.03;76.09;101137.75;1728102;81;21109;-66
2021/12/13 02:49:26;;;;;;;12.73;5.33;;;;;;;5.08;75.07;101138.70;1729595;82;21050;-66
2021/12/13 02:51:59;;;;;;;12.50;5.58;;;;;;;5.19;74.13;101133.47;1729880;82;21472;-65
2021/12/13 02:54:29;;;;;;;13.28;6.22;;;;;;;5.09;73.46;101120.94;1729598;81;20997;-66
2021/12/13 02:57:07;;;;;;;14.93;7.12;;;;;;;4.79;74.53;101132.02;1728843;82;20974;-66
2021/12/13 02:59:35;;;;;;;14.90;7.12;;;;;;;4.85;75.27;101136.69;1729372;82;21100;-67
2021/12/13 03:02:22;;;;;;;13.58;6.15;;;;;;;4.90;74.91;101138.89;1729149;82;21144;-66
2021/12/13 03:04:50;;;;;;;10.60;5.20;;;;;;;4.93;74.15;101134.30;1741470;79;21458;-66
2021/12/13 03:07:21;;;;;;;11.12;4.97;;;;;;;4.99;72.41;101123.45;1773797;80;21101;-65
2021/12/13 03:09:52;;;;;;;13.28;6.00;;;;;;;4.75;74.13;101115.13;1772635;80;21501;-65
2021/12/13 03:12:22;;;;;;;12.03;5.42;;;;;;;4.54;75.46;101114.59;1773373;80;20996;-64
2021/12/13 03:15:00;;;;;;;9.78;5.78;;;;;;;4.64;76.36;101115.51;1773454;80;21787;-66
2021/12/13 03:17:32;;;;;;;20.30;6.97;;;;;;;4.73;75.04;101107.95;1773088;80;21457;-68
2021/12/13 03:20:13;;;;;;;15.40;6.45;;;;;;;4.87;73.39;101114.13;1772895;80;21648;-65
2021/12/13 03:23:21;;;;;;;10.88;5.83;;;;;;;5.21;70.65;101101.02;1773739;80;21007;-64
2021/12/13 03:26:21;;;;;;;10.32;5.42;;;;;;;5.23;69.33;101112.06;1744226;80;21552;-66
2021/12/13 03:29:20;;;;;;;11.08;5.75;;;;;;;5.24;68.14;101105.46;1772448;80;22095;-66
2021/12/13 03:31:51;;;;;;;11.63;5.03;;;;;;;4.97;69.10;101104.69;1773136;80;21006;-67
2021/12/13 03:34:22;;;;;;;;;;;;;;;4.96;69.99;101109.48;1776663;80;21014;-66
2021/12/13 03:36:57;;;;;;;13.48;6.55;;;;;;;4.91;70.18;101101.77;1773530;80;20267;-64
2021/12/13 03:39:35;;;;;;;14.95;6.37;;;;;;;4.64;72.34;101100.48;1773960;80;21386;-64
2021/12/13 03:42:05;;;;;;;11.05;6.17;;;;;;;4.52;73.59;101101.00;1773386;80;21132;-65
2021/12/13 03:44:38;;;;;;;11.45;5.58;;;;;;;4.44;75.43;101099.98;1774190;80;21469;-67
2021/12/13 03:47:11;;;;;;;14.20;6.45;;;;;;;4.58;74.01;101097.09;1774339;80;21057;-65
2021/12/13 03:49:46;;;;;;;13.62;5.95;;;;;;;4.80;71.79;101090.55;1771461;80;20939;-66
2021/12/13 03:52:15;;;;;;;15.03;6.25;;;;;;;4.57;72.55;101084.66;1774021;80;21492;-65
2021/12/13 03:54:43;;;;;;;15.63;5.80;;;;;;;4.47;73.39;101094.11;1774197;80;22419;-68
2021/12/13 03:57:11;;;;;;;14.25;5.70;;;;;;;4.40;74.72;101082.63;1773991;80;21120;-65
2021/12/13 03:59:43;;;;;;;10.58;5.80;;;;;;;4.51;74.11;101078.72;1772910;80;21473;-65
2021/12/13 04:02:16;;;;;;;12.63;5.78;;;;;;;4.63;73.26;101077.72;1794333;76;21376;-65
2021/12/13 04:04:54;;;;;;;17.02;7.15;;;;;;;4.83;71.61;101077.86;1797813;77;21043;-65
2021/12/13 04:07:31;;;;;;;9.20;5.53;;;;;;;4.72;71.45;101080.02;1797789;77;21767;-66
2021/12/13 04:10:03;;;;;;;12.40;6.12;;;;;;;4.74;70.40;101078.15;1808144;77;21239;-64
2021/12/13 04:12:39;;;;;;;12.68;6.00;;;;;;;4.83;70.64;101084.32;1804908;77;21590;-64
2021/12/13 04:15:16;;;;;;;10.80;6.33;;;;;;;4.92;69.64;101080.97;1807960;77;20935;-66
2021/12/13 04:17:58;;;;;;;13.30;6.08;;;;;;;4.58;71.58;101081.16;1804256;77;20959;-64
2021/12/13 04:20:21;;;;;;;12.28;6.55;;;;;;;4.69;72.25;101087.20;1796584;77;20868;-65
2021/12/13 04:22:53;;;;;;;11.38;6.05;;;;;;;4.70;71.80;101092.70;1807778;77;21023;-65
2021/12/13 04:25:22;;;;;;;;;;;;;;;4.86;70.60;101093.94;1797299;77;21458;-67
2021/12/13 04:27:56;;;;;;;13.10;6.53;;;;;;;4.96;69.82;101092.69;1806511;77;20140;-65
2021/12/13 04:30:31;;;;;;;12.82;6.50;;;;;;;4.97;68.70;101095.64;1798778;77;21108;-67
2021/12/13 04:33:02;;;;;;;12.58;6.37;;;;;;;4.86;69.32;101104.27;1798220;77;21137;-64
2021/12/13 04:35:31;;;;;;;13.68;6.87;;;;;;;4.70;69.92;101079.34;1801354;78;21003;-65
2021/12/13 04:38:00;;;;;;;15.35;7.22;;;;;;;4.34;72.08;101070.20;1786046;77;21077;-63
2021/12/13 04:40:31;;;;;;;15.15;6.70;;;;;;;4.15;75.76;101068.27;1806593;77;21566;-64
2021/12/13 04:43:09;;;;;;;13.22;7.70;;;;;;;4.19;76.71;101097.23;1804618;77;21288;-65
2021/12/13 04:45:40;;;;;;;15.35;8.03;;;;;;;4.22;77.74;101077.64;1806713;77;21227;-65
2021/12/13 04:48:17;;;;;;;16.50;6.92;;;;;;;4.31;77.65;101076.89;1797214;77;20984;-65
2021/12/13 04:51:06;;;;;;;12.75;6.53;;;;;;;4.71;75.20;101088.72;1796650;77;21058;-64
2021/12/13 04:53:39;;;;;;;15.70;6.53;;;;;;;4.75;73.45;101088.00;1792625;77;21041;-64
2021/12/13 04:56:10;;;;;;;14.03;6.75;;;;;;;4.49;74.52;101094.79;1802327;77;21438;-63
2021/12/13 04:58:39;;;;;;;11.25;6.00;;;;;;;4.48;75.16;101113.81;1796275;77;21172;-63
2021/12/13 05:01:08;;;;;;;14.30;6.37;;;;;;;4.41;76.78;101115.72;1804452;77;20974;-64
2021/12/13 05:03:40;;;;;;;15.50;6.78;;;;;;;4.52;75.58;101127.30;1788884;78;20935;-64
2021/12/13 05:06:14;;;;;;;13.17;6.40;;;;;;;4.86;73.39;101104.74;1762371;78;21086;-63
2021/12/13 05:08:41;;;;;;;15.78;6.67;;;;;;;4.74;73.24;101102.69;1763449;78;21004;-64
2021/12/13 05:11:09;;;;;;;14.65;6.35;;;;;;;4.64;73.48;101103.07;1721561;80;21170;-65
2021/12/13 05:13:39;;;;;;;12.47;6.47;;;;;;;5.07;70.43;101078.41;1792849;77;21524;-65
2021/12/13 05:16:09;;;;;;;17.62;7.03;;;;;;;4.96;70.63;101097.04;1796868;77;21073;-65
2021/12/13 05:18:51;;;;;;;13.68;6.47;;;;;;;4.93;71.08;101096.84;1789674;77;20974;-63
2021/12/13 05:21:36;;;;;;;;;;;;;;;4.98;71.09;101102.44;1807113;77;21033;-68
2021/12/13 05:24:11;;;;;;;19.40;7.75;;;;;;;5.07;70.69;101126.22;1780148;77;21160;-66
2021/12/13 05:26:55;;;;;;;14.87;7.15;;;;;;;4.99;70.71;101096.32;1809814;77;21421;-66
2021/12/13 05:29:40;;;;;;;16.70;8.43;;;;;;;5.11;70.00;101094.04;1794756;77;21052;-65
2021/12/13 05:32:26;;;;;;;16.45;8.05;;;;;;;4.97;70.85;101113.73;1805466;77;20967;-68
2021/12/13 05:35:01;;;;;;;25.00;7.37;;;;;;;4.96;71.92;101114.65;1812670;77;20994;-66
2021/12/13 05:37:43;;;;;;;15.03;7.92;;;;;;;4.75;73.68;101116.41;1799910;77;21103;-66
2021/12/13 05:40:16;;;;;;;17.77;8.58;;;;;;;4.66;74.56;101117.98;1798994;77;21381;-67
2021/12/13 05:42:52;;;;;;;15.55;7.80;;;;;;;4.79;74.30;101107.00;1815207;77;20931;-67
2021/12/13 05:45:44;;;;;;;12.95;8.33;;;;;;;5.10;73.00;101101.90;1791380;77;21051;-64
2021/12/13 05:48:16;;;;;;;;;;;;;;;5.01;72.48;101118.98;1808862;77;21082;-66
2021/12/13 05:50:49;;;;;;;14.68;8.73;;;;;;;5.02;72.20;101105.12;1800263;77;21127;-65
2021/12/13 05:53:24;;;;;;;19.80;10.98;;;;;;;4.94;72.67;101106.22;1797449;77;21056;-65
2021/12/13 05:55:56;;;;;;;24.00;12.28;;;;;;;5.21;72.00;101106.19;1803810;77;21560;-65
2021/12/13 05:58:45;;;;;;;22.37;11.60;;;;;;;5.48;69.25;101101.77;1791687;77;21037;-65
2021/12/13 06:01:24;;;;;;;24.18;12.03;;;;;;;5.13;70.52;101107.64;1811474;77;21350;-67
2021/12/13 06:04:08;;;;;;;18.82;9.70;;;;;;;5.22;70.77;101118.97;1781148;78;21099;-68
2021/12/13 06:06:48;;;;;;;14.28;8.65;;;;;;;5.42;69.40;101126.39;1798908;77;21137;-68
2021/12/13 06:09:43;;;;;;;20.80;9.55;;;;;;;5.54;68.64;101117.59;1803806;77;21473;-66
2021/12/13 06:12:18;;;;;;;18.27;9.93;;;;;;;5.64;67.63;101125.86;1797174;77;21515;-67
2021/12/13 06:14:47;;;;;;;16.65;8.75;;;;;;;5.73;67.46;101117.34;1748565;80;21112;-67
2021/12/13 06:17:18;;;;;;;18.05;9.10;;;;;;;5.83;66.31;101119.47;1806792;77;21194;-66
2021/12/13 06:20:03;;;;;;;16.37;8.70;;;;;;;5.94;65.39;101115.99;1806707;77;20916;-67
2021/12/13 06:22:32;;;;;;;14.47;7.80;;;;;;;5.94;64.77;101094.81;1815014;77;21277;-66
2021/12/13 06:25:09;;;;;;;19.02;9.38;;;;;;;5.94;64.86;101106.45;1790268;77;21010;-66
2021/12/13 06:27:47;;;;;;;18.67;9.68;;;;;;;6.14;63.29;101108.64;1804236;77;21019;-67
2021/12/13 06:30:25;;;;;;;16.07;8.40;;;;;;;6.32;62.59;101106.20;1811224;77;22245;-66
2021/12/13 06:33:02;;;;;;;15.28;8.93;;;;;;;6.05;63.30;101110.23;1803793;77;20928;-68
2021/12/13 06:35:50;;;;;;;15.85;8.40;;;;;;;6.24;62.14;101119.81;1791051;77;20915;-68
2021/12/13 06:38:22;;;;;;;17.48;8.53;;;;;;;6.13;63.16;101113.45;1803697;77;20980;-68
2021/12/13 06:40:53;;;;;;;17.77;8.98;;;;;;;6.37;62.43;101104.52;1811054;77;20841;-69
2021/12/13 06:43:41;;;;;;;19.05;9.93;;;;;;;5.60;64.71;101090.38;1801502;77;21538;-66
2021/12/13 06:46:25;;;;;;;15.20;9.45;;;;;;;5.23;69.10;101101.73;1807022;77;21030;-66
2021/12/13 06:49:10;;;;;;;19.02;8.95;;;;;;;5.08;72.51;101100.75;1808083;77;21051;-66
2021/12/13 06:51:54;;;;;;;20.75;9.75;;;;;;;5.18;74.38;101090.45;1806468;77;20984;-66
2021/12/13 06:54:44;;;;;;;21.73;9.95;;;;;;;5.30;73.21;101091.19;1800600;78;21113;-67
2021/12/13 06:57:22;;;;;;;20.37;9.78;;;;;;;5.39;73.40;101099.48;1795864;77;21219;-66
2021/12/13 06:59:59;;;;;;;16.52;9.15;;;;;;;5.55;72.48;101095.95;1813823;77;20876;-65
2021/12/13 07:02:30;;;;;;;21.25;11.12;;;;;;;5.51;72.46;101102.80;1796558;77;21176;-65
2021/12/13 07:05:12;;;;;;;15.90;8.97;;;;;;;5.24;75.36;101105.94;1793415;78;21568;-66
2021/12/13 07:07:47;;;;;;;18.65;9.53;;;;;;;5.09;77.24;101086.88;1798674;77;21318;-69
2021/12/13 07:10:22;;;;;;;21.00;9.50;;;;;;;5.84;72.33;101096.55;1798191;77;21223;-66
2021/12/13 07:12:55;;;;;;;21.25;10.80;;;;;;;5.82;71.07;101107.48;1796615;77;20910;-68
2021/12/13 07:15:42;;;;;;;23.05;9.98;;;;;;;5.71;71.57;101101.11;1805747;77;21086;-67
2021/12/13 07:18:21;;;;;;;27.60;11.15;;;;;;;5.75;71.72;101092.14;1810839;77;21068;-68
2021/12/13 07:21:05;;;;;;;18.92;9.83;;;;;;;5.79;71.93;101089.62;1800889;77;20983;-67
2021/12/13 07:23:56;;;;;;;21.80;9.13;;;;;;;5.53;73.35;101107.36;1793379;77;22399;-67
2021/12/13 07:26:53;;;;;;;19.50;9.95;;;;;;;5.59;75.19;101106.85;1805767;77;21186;-65
2021/12/13 07:29:43;;;;;;;18.10;9.60;;;;;;;5.66;74.60;101098.92;1778998;77;21042;-70
2021/12/13 07:32:29;;;;;;;25.20;12.33;;;;;;;5.68;74.86;101103.48;1799518;77;20975;-66
2021/12/13 07:35:09;;;;;;;19.25;10.60;;;;;;;5.59;76.25;101096.51;1795858;77;21057;-67
2021/12/13 07:37:53;;;;;;;16.62;9.65;;;;;;;5.42;78.13;101097.09;1802783;77;21935;-66
2021/12/13 07:40:34;;;;;;;14.50;8.85;;;;;;;5.53;78.84;101107.36;1807521;77;20995;-68
2021/12/13 07:43:29;;;;;;;18.32;9.48;;;;;;;5.67;78.31;101110.09;1804077;77;21685;-67
2021/12/13 07:46:12;;;;;;;16.27;9.13;;;;;;;5.36;81.34;101113.48;1793042;77;20960;-67
2021/12/13 07:48:45;;;;;;;17.98;9.30;;;;;;;5.79;78.65;101115.50;1775502;78;20848;-63
2021/12/13 07:51:36;;;;;;;17.60;10.18;;;;;;;5.48;78.35;101115.98;1792665;77;21134;-65
2021/12/13 07:54:08;;;;;;;21.87;10.55;;;;;;;5.30;83.11;101115.30;1791673;77;20983;-68
2021/12/13 07:56:47;;;;;;;18.87;10.30;;;;;;;5.28;83.14;101120.25;1803715;77;21472;-64
2021/12/13 07:59:31;;;;;;;18.95;10.72;;;;;;;5.01;90.67;101129.33;1804273;77;20995;-68
2021/12/13 08:02:21;;;;;;;17.80;10.08;;;;;;;5.10;92.20;101129.84;1797666;77;20964;-65
2021/12/13 08:04:59;;;;;;;18.92;11.70;;;;;;;4.92;93.54;101119.72;1801360;78;21218;-64
2021/12/13 08:07:32;;;;;;;21.15;10.23;;;;;;;5.02;96.16;101123.20;1803803;78;20958;-66
2021/12/13 08:10:08;;;;;;;22.25;10.25;;;;;;;5.27;94.15;101141.41;1802572;78;20926;-64
2021/12/13 08:12:44;;;;;;;19.85;11.20;;;;;;;4.75;97.79;101133.20;1793433;78;20931;-66
2021/12/13 08:15:21;;;;;;;23.95;11.05;;;;;;;4.57;100.00;101132.91;1803495;78;20932;-64
2021/12/13 08:17:54;;;;;;;17.77;10.80;;;;;;;5.24;95.58;101146.81;1807718;78;20998;-67
2021/12/13 08:20:28;;;;;;;19.50;9.93;;;;;;;4.83;98.36;101139.86;1795221;78;21280;-64
2021/12/13 08:22:56;;;;;;;17.25;10.70;;;;;;;4.78;100.00;101129.09;1803223;78;21050;-69
2021/12/13 08:25:26;;;;;;;20.43;10.50;;;;;;;5.03;100.00;101124.83;1803884;78;21109;-67
2021/12/13 08:28:00;;;;;;;18.87;12.70;;;;;;;5.08;100.00;101119.31;1795322;78;20931;-69
2021/12/13 08:30:36;;;;;;;18.65;10.35;;;;;;;5.21;96.75;101105.70;1802100;78;21110;-65
2021/12/13 08:33:14;;;;;;;22.77;11.08;;;;;;;5.53;93.45;101101.74;1791961;78;21508;-65
2021/12/13 08:36:11;;;;;;;20.08;10.15;;;;;;;5.37;95.01;101098.78;1799386;78;21038;-64
2021/12/13 08:39:05;;;;;;;21.17;10.95;;;;;;;5.36;95.83;101099.73;1806386;78;20988;-64
2021/12/13 08:41:49;;;;;;;23.57;12.18;;;;;;;5.52;94.77;101091.50;1803381;78;21541;-64
2021/12/13 08:44:24;;;;;;;23.45;12.73;;;;;;;5.53;93.06;101087.52;1797143;78;21123;-65
2021/12/13 08:46:59;;;;;;;24.40;11.50;;;;;;;5.54;93.67;101101.27;1799721;78;21083;-64
2021/12/13 08:49:40;;;;;;;22.82;12.75;;;;;;;5.44;95.12;101085.69;1807593;78;21269;-64
2021/12/13 08:52:12;;;;;;;18.73;11.48;;;;;;;5.03;100.00;101084.78;1801347;78;25785;-68
2021/12/13 08:55:18;;;;;;;17.77;9.18;;;;;;;5.29;100.00;101072.28;1797959;78;21070;-67
2021/12/13 08:58:12;;;;;;;18.00;8.13;;;;;;;5.30;99.70;101088.16;1789491;78;21202;-67
2021/12/13 09:01:08;;;;;;;23.27;11.48;;;;;;;5.35;99.05;101076.13;1804831;78;21034;-68
2021/12/13 09:03:45;;;;;;;18.70;9.80;;;;;;;5.49;98.79;101076.25;1803508;78;21134;-65
2021/12/13 09:06:29;;;;;;;20.10;11.05;;;;;;;5.63;96.85;101098.36;1796408;78;21013;-66
2021/12/13 09:09:13;;;;;;;23.83;12.40;;;;;;;5.97;91.73;101089.38;1788808;78;21109;-66
2021/12/13 09:12:00;;;;;;;17.42;10.03;;;;;;;6.11;90.12;101092.08;1797961;78;21782;-67
2021/12/13 09:14:41;;;;;;;24.50;11.22;;;;;;;6.22;87.10;101104.09;1797311;78;21560;-65
2021/12/13 09:17:23;;;;;;;15.93;8.70;;;;;;;7.00;79.66;101089.34;1795313;78;21520;-65
2021/12/13 09:19:59;;;;;;;;;;;;;;;6.92;76.67;101061.53;1793477;78;21125;-68
2021/12/13 09:22:36;;;;;;;16.70;8.65;;;;;;;6.75;78.52;101062.26;1810729;78;20081;-65
2021/12/13 09:25:30;;;;;;;14.58;8.55;;;;;;;6.63;78.39;101050.38;1814543;78;21127;-68
2021/12/13 09:28:02;;;;;;;16.52;9.40;;;;;;;6.37;81.44;101062.61;1815391;78;21066;-66
2021/12/13 09:30:52;;;;;;;18.73;9.65;;;;;;;6.44;84.46;101071.48;1816483;78;21488;-66
2021/12/13 09:33:29;;;;;;;20.05;9.45;;;;;;;6.24;85.03;101049.09;1815848;78;20994;-66
2021/12/13 09:36:01;;;;;;;17.48;9.50;;;;;;;6.05;88.66;101036.47;1809032;78;21390;-66
2021/12/13 09:39:04;;;;;;;17.02;9.43;;;;;;;6.40;87.64;101053.25;1804724;78;21807;-68
2021/12/13 09:41:39;;;;;;;17.23;10.25;;;;;;;6.55;84.77;101058.39;1809170;78;20976;-67
2021/12/13 09:44:18;;;;;;;20.40;10.88;;;;;;;6.60;83.79;101055.86;1813923;78;20999;-67
2021/12/13 09:47:02;;;;;;;16.67;10.32;;;;;;;6.60;83.92;101032.07;1809794;78;20970;-66
2021/12/13 09:49:35;;;;;;;21.37;12.75;;;;;;;6.68;85.50;101010.65;1816691;78;21520;-67
2021/12/13 09:52:10;;;;;;;24.47;13.32;;;;;;;6.73;83.13;101025.29;1811621;78;21161;-67
2021/12/13 09:54:48;;;;;;;21.65;11.20;;;;;;;6.72;84.11;101031.44;1808828;78;21054;-66
2021/12/13 09:57:19;;;;;;;22.82;11.40;;;;;;;6.68;85.41;101014.53;1809120;78;20932;-69
2021/12/13 09:59:51;;;;;;;14.35;8.78;;;;;;;6.64;85.65;101008.00;1792542;78;21041;-67
2021/12/13 10:02:38;;;;;;;16.42;9.05;;;;;;;6.65;85.09;100995.38;1798569;78;22512;-65
2021/12/13 10:05:09;;;;;;;17.40;9.63;;;;;;;6.34;89.63;100998.14;1815026;78;21777;-69
2021/12/13 10:07:37;;;;;;;;;;;;;;;6.24;91.67;101018.03;1807283;78;21556;-67
2021/12/13 10:10:12;;;;;;;16.35;8.85;;;;;;;6.19;94.24;101006.80;1816611;78;20121;-67
2021/12/13 10:12:49;;;;;;;17.00;8.80;;;;;;;6.29;95.39;101028.81;1814361;78;21042;-66
2021/12/13 10:15:27;;;;;;;16.32;8.03;;;;;;;6.25;94.82;101023.09;1797982;78;21034;-66
2021/12/13 10:17:59;;;;;;;12.63;7.30;;;;;;;6.28;96.50;101024.09;1802754;78;21177;-66
2021/12/13 10:20:34;;;;;;;15.60;8.98;;;;;;;6.27;96.37;101017.28;1799717;78;21063;-66
2021/12/13 10:23:01;;;;;;;17.70;10.03;;;;;;;6.27;97.76;101022.94;1805664;78;21078;-68
2021/12/13 10:25:33;;;;;;;15.75;10.05;;;;;;;6.23;99.01;101010.74;1806481;78;21559;-66
2021/12/13 10:28:00;;;;;;;;;;;;;;;6.40;98.59;101020.06;1806658;78;21015;-65
2021/12/13 10:30:37;;;;;;;16.77;9.28;;;;;;;6.44;98.31;101008.02;1814782;78;21142;-66
2021/12/13 10:33:04;;;;;;;16.00;9.30;;;;;;;6.50;97.54;101010.05;1810571;78;21062;-68
2021/12/13 10:35:37;;;;;;;13.65;8.23;;;;;;;6.74;95.12;100999.27;1810617;78;21585;-67
2021/12/13 10:38:27;;;;;;;19.90;9.70;;;;;;;6.75;94.15;100995.70;1802470;78;21085;-70
2021/12/13 10:41:05;;;;;;;17.40;8.48;;;;;;;6.65;95.11;101000.56;1814208;78;21521;-68
2021/12/13 10:43:39;;;;;;;13.22;8.23;;;;;;;6.69;94.81;100992.84;1810736;78;21135;-67
2021/12/13 10:46:18;;;;;;;14.93;8.43;;;;;;;6.92;93.02;101011.48;1815720;78;20935;-62
2021/12/13 10:48:49;;;;;;;16.48;10.18;;;;;;;6.83;94.26;101001.48;1814771;78;20884;-68
2021/12/13 10:51:30;;;;;;;13.93;8.48;;;;;;;6.70;96.00;101005.64;1809633;78;21528;-67
2021/12/13 10:54:00;;;;;;;16.60;10.15;;;;;;;6.72;97.43;100997.27;1801811;78;20967;-69
2021/12/13 10:56:30;;;;;;;17.90;9.53;;;;;;;6.98;94.98;101000.55;1815242;78;22255;-69
2021/12/13 10:59:01;;;;;;;17.95;10.20;;;;;;;6.64;98.69;100996.34;1815438;78;21252;-63
2021/12/13 11:01:32;;;;;;;19.82;10.35;;;;;;;6.94;97.96;100999.20;1815091;78;20925;-64
2021/12/13 11:04:02;;;;;;;18.80;10.75;;;;;;;6.90;97.10;100993.48;1806719;78;20995;-66
2021/12/13 11:06:29;;;;;;;21.27;11.65;;;;;;;6.93;100.00;100993.20;1807711;77;21097;-68
2021/12/13 11:08:57;;;;;;;19.80;11.12;;;;;;;7.04;96.85;100990.41;1803606;77;22068;-65
2021/12/13 11:11:32;;;;;;;19.87;12.10;;;;;;;7.01;97.68;100997.20;1794546;77;21082;-65
2021/12/13 11:14:03;;;;;;;19.77;10.85;;;;;;;6.99;99.20;100979.67;1808965;77;20966;-62
2021/12/13 11:16:35;;;;;;;20.75;12.58;;;;;;;7.20;95.11;100983.84;1786672;77;20904;-66
2021/12/13 11:19:05;;;;;;;21.85;12.55;;;;;;;7.28;95.29;100989.13;1803105;77;21335;-68
2021/12/13 11:21:35;;;;;;;21.82;10.95;;;;;;;7.20;95.58;100985.13;1809289;77;21212;-69
2021/12/13 11:24:05;;;;;;;16.25;10.88;;;;;;;7.40;93.65;100978.88;1812621;77;21050;-67
2021/12/13 11:26:34;;;;;;;19.70;9.85;;;;;;;7.23;93.84;100986.93;1800836;77;21113;-68
2021/12/13 11:29:02;;;;;;;18.62;10.82;;;;;;;7.35;92.00;100986.29;1808799;77;21030;-68
2021/12/13 11:31:52;;;;;;;16.95;11.03;;;;;;;7.35;91.67;100989.34;1791098;77;21454;-62
2021/12/13 11:34:44;;;;;;;17.35;11.12;;;;;;;7.46;92.22;100977.02;1812838;78;21099;-67
2021/12/13 11:37:31;;;;;;;16.67;10.32;;;;;;;7.46;92.53;100988.69;1800237;77;21037;-66
2021/12/13 11:40:41;;;;;;;20.57;12.73;;;;;;;7.43;91.99;100985.09;1797792;77;20924;-69
2021/12/13 11:43:58;;;;;;;15.45;9.40;;;;;;;7.63;91.21;100980.59;1794150;77;21060;-68
2021/12/13 11:46:59;;;;;;;19.55;11.20;;;;;;;7.83;87.84;100973.98;1775809;80;21019;-68
2021/12/13 11:49:50;;;;;;;14.85;8.55;;;;;;;7.58;88.46;100983.27;1744334;80;22232;-65
2021/12/13 11:52:51;;;;;;;18.17;10.32;;;;;;;7.67;87.99;100983.23;1773135;80;22341;-67
2021/12/13 11:55:59;;;;;;;23.12;10.72;;;;;;;7.55;89.16;100976.14;1771475;80;21070;-69
2021/12/13 11:59:16;;;;;;;16.90;10.82;;;;;;;7.56;89.33;100980.36;1704686;82;21059;-68
2021/12/13 12:02:08;;;;;;;25.10;12.88;;;;;;;7.49;91.44;100971.52;1762006;80;21020;-68
2021/12/13 12:05:14;;;;;;;24.43;11.50;;;;;;;7.64;90.48;100973.63;1770492;78;22497;-69
2021/12/13 12:08:02;;;;;;;17.20;10.28;;;;;;;7.70;89.62;100959.59;1767031;80;21000;-68
2021/12/13 12:11:23;;;;;;;19.90;11.75;;;;;;;7.70;88.42;100953.59;1808125;78;20990;-68
2021/12/13 12:14:05;;;;;;;15.28;10.13;;;;;;;7.82;87.37;100949.00;1815911;78;21067;-68
2021/12/13 12:16:42;;;;;;;19.65;10.75;;;;;;;7.86;86.90;100951.63;1805132;78;21097;-68
2021/12/13 12:19:17;;;;;;;16.97;10.98;;;;;;;7.93;86.27;100959.97;1816707;78;21129;-71